Time;durP1;ratioP1;P1;durP2;ratioP2;P2;SDS_P1;SDS_P2;PMS_P1;PMS_P2;Temp;Humidity;BMP_temperature;BMP_pressure;BME280_temperature;BME280_humidity;BME280_pressure;Samples;Min_cycle;Max_cycle;Signal;HPM_P1;HPM_P2
2021/07/18 00:01:41;;;;;;;6.15;3.67;;;24.70;99.90;;;;;;5033633;28;20052;-45
2021/07/18 00:04:09;;;;;;;8.80;4.40;;;24.70;99.90;;;;;;5033649;28;20041;-46
2021/07/18 00:06:42;;;;;;;7.55;4.10;;;24.70;99.90;;;;;;5031604;28;20050;-46
2021/07/18 00:09:10;;;;;;;4.47;3.65;;;24.60;99.90;;;;;;5033045;28;20110;-45
2021/07/18 00:11:38;;;;;;;6.57;4.35;;;24.60;99.90;;;;;;5033088;28;20104;-45
2021/07/18 00:14:09;;;;;;;5.95;3.78;;;24.60;99.90;;;;;;5033585;28;20104;-45
2021/07/18 00:16:37;;;;;;;5.32;3.58;;;24.60;99.90;;;;;;5033174;28;20060;-45
2021/07/18 00:19:06;;;;;;;4.90;3.58;;;24.60;99.90;;;;;;5016516;28;20040;-46
2021/07/18 00:21:35;;;;;;;5.57;4.68;;;24.60;99.90;;;;;;5033404;28;20051;-45
2021/07/18 00:24:04;;;;;;;9.90;4.50;;;24.60;99.90;;;;;;5032561;28;20045;-46
2021/07/18 00:26:32;;;;;;;4.53;3.30;;;24.60;99.90;;;;;;5032932;28;20041;-46
2021/07/18 00:29:03;;;;;;;5.28;3.85;;;24.60;99.90;;;;;;5033383;28;20041;-47
2021/07/18 00:31:31;;;;;;;4.60;3.63;;;24.50;99.90;;;;;;5031803;28;20063;-46
2021/07/18 00:34:05;;;;;;;5.25;2.55;;;24.50;99.90;;;;;;5032035;28;20053;-46
2021/07/18 00:36:33;;;;;;;4.85;2.88;;;24.50;99.90;;;;;;5033253;28;20484;-46
2021/07/18 00:39:01;;;;;;;4.88;3.30;;;24.40;99.90;;;;;;5032628;28;20059;-46
2021/07/18 00:41:28;;;;;;;5.68;3.20;;;24.40;99.90;;;;;;5032944;28;20080;-46
2021/07/18 00:43:56;;;;;;;5.40;3.00;;;24.40;99.90;;;;;;5031984;28;20120;-45
2021/07/18 00:46:25;;;;;;;5.68;2.80;;;24.40;99.90;;;;;;5032572;28;20092;-47
2021/07/18 00:49:07;;;;;;;5.88;2.60;;;24.40;99.90;;;;;;5031953;28;20146;-48
2021/07/18 00:51:35;;;;;;;5.65;2.50;;;24.40;99.90;;;;;;5033094;28;20069;-46
2021/07/18 00:54:10;;;;;;;3.78;2.45;;;24.40;99.90;;;;;;5031397;28;20042;-46
2021/07/18 00:56:38;;;;;;;4.28;3.08;;;24.40;99.90;;;;;;5032531;28;20080;-46
2021/07/18 00:59:06;;;;;;;3.67;2.50;;;24.40;99.90;;;;;;5032816;28;20400;-46
2021/07/18 01:01:34;;;;;;;4.13;2.78;;;24.40;99.90;;;;;;5032859;28;20095;-46
2021/07/18 01:04:02;;;;;;;5.93;2.53;;;24.40;99.90;;;;;;5033188;28;20042;-46
2021/07/18 01:06:29;;;;;;;5.10;2.63;;;24.40;99.90;;;;;;5032818;28;20069;-46
2021/07/18 01:08:57;;;;;;;5.63;2.92;;;24.40;99.90;;;;;;5032791;28;20508;-45
2021/07/18 01:11:24;;;;;;;5.00;3.30;;;24.40;99.90;;;;;;5032438;28;20057;-45
2021/07/18 01:13:53;;;;;;;3.88;2.38;;;24.40;99.90;;;;;;5032447;28;20080;-47
2021/07/18 01:16:21;;;;;;;4.97;2.53;;;24.40;99.90;;;;;;5032829;28;20057;-46
2021/07/18 01:18:49;;;;;;;5.60;2.28;;;24.40;99.90;;;;;;5035003;28;20045;-46
2021/07/18 01:21:21;;;;;;;3.60;2.53;;;24.40;99.90;;;;;;5035684;28;20132;-46
2021/07/18 01:23:49;;;;;;;4.13;3.13;;;24.40;99.90;;;;;;5036894;28;20080;-49
2021/07/18 01:26:17;;;;;;;6.75;2.80;;;24.30;99.90;;;;;;5034721;28;20065;-46
2021/07/18 01:28:46;;;;;;;5.28;3.10;;;24.30;99.90;;;;;;5036493;28;20496;-46
2021/07/18 01:31:13;;;;;;;4.03;2.50;;;24.30;99.90;;;;;;5035301;28;20042;-46
2021/07/18 01:33:41;;;;;;;5.05;3.00;;;24.30;99.90;;;;;;5035099;28;20042;-46
2021/07/18 01:36:10;;;;;;;4.00;2.20;;;24.30;99.90;;;;;;5036594;28;20538;-46
2021/07/18 01:38:37;;;;;;;6.45;2.83;;;24.30;99.90;;;;;;5035059;28;20125;-46
2021/07/18 01:41:05;;;;;;;4.10;2.53;;;24.30;99.90;;;;;;5035889;28;20096;-49
2021/07/18 01:43:32;;;;;;;4.38;2.60;;;24.30;99.90;;;;;;5035006;28;20049;-46
2021/07/18 01:46:00;;;;;;;4.93;3.45;;;24.20;99.90;;;;;;5035810;28;20053;-47
2021/07/18 01:48:28;;;;;;;5.03;2.60;;;24.30;99.90;;;;;;5036196;28;20517;-46
2021/07/18 01:50:55;;;;;;;6.22;2.95;;;24.20;99.90;;;;;;5036276;28;20037;-47
2021/07/18 01:53:23;;;;;;;5.30;3.00;;;24.20;99.90;;;;;;5035769;28;20049;-46
2021/07/18 01:55:54;;;;;;;5.43;3.03;;;24.20;99.90;;;;;;5036236;28;20180;-46
2021/07/18 01:58:29;;;;;;;9.45;3.00;;;24.20;99.90;;;;;;5035450;28;20046;-47
2021/07/18 02:00:57;;;;;;;3.97;2.85;;;24.20;99.90;;;;;;5035815;28;20045;-46
2021/07/18 02:03:24;;;;;;;5.35;3.60;;;24.20;99.90;;;;;;5036024;28;20087;-46
2021/07/18 02:05:52;;;;;;;6.63;2.80;;;24.10;99.90;;;;;;5034989;28;20435;-46
2021/07/18 02:08:19;;;;;;;3.70;2.60;;;24.10;99.90;;;;;;5035641;28;20041;-46
2021/07/18 02:10:47;;;;;;;5.57;2.83;;;24.10;99.90;;;;;;5036103;28;20045;-45
2021/07/18 02:13:17;;;;;;;4.75;2.95;;;24.10;99.90;;;;;;5034809;28;20147;-46
2021/07/18 02:15:45;;;;;;;6.63;3.50;;;24.10;99.90;;;;;;5034384;28;20072;-45
2021/07/18 02:18:13;;;;;;;6.32;2.80;;;24.10;99.90;;;;;;5034384;28;20049;-45
2021/07/18 02:20:42;;;;;;;7.63;3.78;;;24.00;99.90;;;;;;5034461;28;20056;-45
2021/07/18 02:23:10;;;;;;;5.85;3.28;;;24.10;99.90;;;;;;5035557;28;20084;-45
2021/07/18 02:25:38;;;;;;;4.22;3.42;;;24.10;99.90;;;;;;5035768;28;20412;-47
2021/07/18 02:28:06;;;;;;;7.60;2.83;;;24.10;99.90;;;;;;5017531;28;20053;-48
2021/07/18 02:30:34;;;;;;;5.00;3.05;;;24.10;99.90;;;;;;5034690;28;20049;-45
2021/07/18 02:33:02;;;;;;;4.05;3.20;;;24.10;99.90;;;;;;5034966;28;20050;-46
2021/07/18 02:35:29;;;;;;;4.93;3.00;;;24.00;99.90;;;;;;5035439;28;20045;-46
2021/07/18 02:37:58;;;;;;;3.72;2.72;;;24.10;99.90;;;;;;5017604;28;20049;-46
2021/07/18 02:40:26;;;;;;;7.40;3.13;;;24.00;99.90;;;;;;5018565;28;20133;-46
2021/07/18 02:42:54;;;;;;;5.40;3.13;;;24.00;99.90;;;;;;5035237;28;20041;-46
2021/07/18 02:45:23;;;;;;;4.95;3.28;;;24.00;99.90;;;;;;5034758;28;20087;-45
2021/07/18 02:47:51;;;;;;;5.30;3.67;;;24.00;99.90;;;;;;5033237;28;20056;-45
2021/07/18 02:50:22;;;;;;;6.32;3.38;;;24.00;99.90;;;;;;5035016;28;20141;-46
2021/07/18 02:52:50;;;;;;;5.57;3.60;;;24.00;99.90;;;;;;5035107;28;20049;-46
2021/07/18 02:55:18;;;;;;;7.85;3.47;;;24.00;99.90;;;;;;5033919;28;20045;-46
2021/07/18 02:57:47;;;;;;;4.50;2.92;;;23.90;99.90;;;;;;5034996;28;20408;-45
2021/07/18 03:00:18;;;;;;;5.45;4.00;;;24.00;99.90;;;;;;5034466;28;20041;-46
2021/07/18 03:02:46;;;;;;;4.53;3.20;;;24.00;99.90;;;;;;5033537;28;20060;-46
2021/07/18 03:05:14;;;;;;;6.60;2.83;;;24.00;99.90;;;;;;5034984;28;20095;-45
2021/07/18 03:07:43;;;;;;;4.68;3.10;;;23.90;99.90;;;;;;5034670;28;20057;-46
2021/07/18 03:10:14;;;;;;;4.57;2.72;;;23.90;99.90;;;;;;5034636;28;20053;-46
2021/07/18 03:12:42;;;;;;;3.75;2.72;;;23.90;99.90;;;;;;5034579;28;20128;-45
2021/07/18 03:15:14;;;;;;;4.95;2.30;;;23.80;99.90;;;;;;5034116;28;20076;-47
2021/07/18 03:17:42;;;;;;;4.25;2.17;;;23.80;99.90;;;;;;5034789;28;20054;-47
2021/07/18 03:20:12;;;;;;;5.25;2.15;;;23.80;99.90;;;;;;5034525;28;20053;-46
2021/07/18 03:22:40;;;;;;;3.38;2.17;;;23.80;99.90;;;;;;5034585;28;20412;-45
2021/07/18 03:25:09;;;;;;;4.43;2.40;;;23.80;99.90;;;;;;5034524;28;20515;-45
2021/07/18 03:27:37;;;;;;;5.35;2.40;;;23.80;99.90;;;;;;5034358;28;20045;-47
2021/07/18 03:30:07;;;;;;;4.72;2.92;;;23.90;99.90;;;;;;5033122;28;20046;-45
2021/07/18 03:32:35;;;;;;;5.57;2.60;;;23.80;99.90;;;;;;5034069;28;20156;-48
2021/07/18 03:35:05;;;;;;;6.45;2.88;;;23.80;99.90;;;;;;5033081;28;20440;-46
2021/07/18 03:37:35;;;;;;;3.55;2.20;;;23.80;99.90;;;;;;5033399;28;20125;-46
2021/07/18 03:40:09;;;;;;;3.45;2.53;;;23.80;99.90;;;;;;5034422;28;20042;-45
2021/07/18 03:42:37;;;;;;;5.30;2.65;;;23.80;99.90;;;;;;5033883;28;20444;-45
2021/07/18 03:45:07;;;;;;;4.00;2.45;;;23.80;99.90;;;;;;5033157;28;20073;-46
2021/07/18 03:47:35;;;;;;;3.65;2.33;;;23.90;99.90;;;;;;5032468;28;20067;-46
2021/07/18 03:50:04;;;;;;;4.53;2.85;;;23.90;99.90;;;;;;5034036;28;20137;-45
2021/07/18 03:52:32;;;;;;;4.60;3.22;;;24.00;99.90;;;;;;5034114;28;20450;-46
2021/07/18 03:54:59;;;;;;;4.10;2.03;;;24.10;99.90;;;;;;5032819;28;20496;-45
2021/07/18 03:57:27;;;;;;;4.63;3.10;;;24.10;99.90;;;;;;5034056;28;20049;-46
2021/07/18 03:59:55;;;;;;;4.45;2.78;;;24.10;99.90;;;;;;5034007;28;20045;-46
2021/07/18 04:02:22;;;;;;;4.70;2.10;;;24.20;99.90;;;;;;5033752;28;20068;-46
2021/07/18 04:04:50;;;;;;;3.65;2.28;;;24.20;99.90;;;;;;5033811;28;20037;-46
2021/07/18 04:07:18;;;;;;;5.18;2.25;;;24.20;99.90;;;;;;5033727;28;20381;-48
2021/07/18 04:09:45;;;;;;;6.10;3.03;;;24.30;99.90;;;;;;5033687;28;20045;-45
2021/07/18 04:12:13;;;;;;;7.15;2.95;;;24.30;99.90;;;;;;5034231;28;20103;-46
2021/07/18 04:14:40;;;;;;;4.20;2.30;;;24.40;99.90;;;;;;5033855;28;20050;-45
2021/07/18 04:17:08;;;;;;;7.65;2.75;;;24.40;99.90;;;;;;5032541;28;20476;-46
2021/07/18 04:19:36;;;;;;;5.07;2.88;;;24.50;99.90;;;;;;5033524;28;20048;-46
2021/07/18 04:22:04;;;;;;;6.75;3.08;;;24.50;99.90;;;;;;5033431;28;20095;-47
2021/07/18 04:24:32;;;;;;;3.45;2.35;;;24.50;99.90;;;;;;5032035;28;20096;-46
2021/07/18 04:26:59;;;;;;;4.20;2.55;;;24.60;99.90;;;;;;5032440;28;20046;-47
2021/07/18 04:29:27;;;;;;;4.55;2.28;;;24.60;99.90;;;;;;5033817;28;20125;-47
2021/07/18 04:31:55;;;;;;;4.07;2.15;;;24.70;99.90;;;;;;5032779;28;20053;-46
2021/07/18 04:34:22;;;;;;;6.22;3.10;;;24.70;99.90;;;;;;5032934;28;20048;-46
2021/07/18 04:36:50;;;;;;;5.88;3.03;;;24.60;99.90;;;;;;5033098;28;20473;-47
2021/07/18 04:39:18;;;;;;;9.18;3.63;;;24.60;99.90;;;;;;5031902;28;20554;-45
2021/07/18 04:41:46;;;;;;;7.78;3.60;;;24.60;99.90;;;;;;5033580;28;20054;-46
2021/07/18 04:44:13;;;;;;;10.63;3.33;;;24.60;99.90;;;;;;5033408;28;20091;-46
2021/07/18 04:46:41;;;;;;;5.07;2.97;;;24.50;99.90;;;;;;5033387;28;20484;-45
2021/07/18 04:49:08;;;;;;;8.00;2.92;;;24.50;99.90;;;;;;5032875;28;20064;-45
2021/07/18 04:51:37;;;;;;;5.82;3.25;;;24.50;99.90;;;;;;5033214;28;20511;-46
2021/07/18 04:54:04;;;;;;;8.32;2.65;;;24.40;99.90;;;;;;5038972;28;20096;-47
2021/07/18 04:56:32;;;;;;;6.00;2.95;;;24.50;99.90;;;;;;5039963;28;20043;-46
2021/07/18 04:59:00;;;;;;;7.15;2.63;;;24.50;99.90;;;;;;5039929;28;20052;-45
2021/07/18 05:01:27;;;;;;;5.13;3.38;;;24.50;99.90;;;;;;5040208;28;20037;-46
2021/07/18 05:03:55;;;;;;;6.88;3.10;;;24.60;99.90;;;;;;5038300;28;20073;-46
2021/07/18 05:06:22;;;;;;;4.53;2.22;;;24.60;99.90;;;;;;5039128;28;20400;-47
2021/07/18 05:08:50;;;;;;;4.53;3.20;;;24.60;99.90;;;;;;5038596;28;20076;-46
2021/07/18 05:11:21;;;;;;;8.65;2.42;;;24.60;99.90;;;;;;5039652;28;20096;-45
2021/07/18 05:13:52;;;;;;;6.57;2.70;;;24.60;99.90;;;;;;5038477;28;20068;-47
2021/07/18 05:16:20;;;;;;;7.28;2.95;;;24.60;99.90;;;;;;5039740;28;20047;-46
2021/07/18 05:18:48;;;;;;;4.80;2.38;;;24.60;99.90;;;;;;5039644;28;20049;-47
2021/07/18 05:21:16;;;;;;;4.10;2.47;;;24.60;99.90;;;;;;5038890;28;20445;-46
2021/07/18 05:23:43;;;;;;;4.38;2.92;;;24.60;99.90;;;;;;5021670;28;20521;-45
2021/07/18 05:26:11;;;;;;;8.38;2.92;;;24.70;99.90;;;;;;5038440;28;20427;-46
2021/07/18 05:28:39;;;;;;;6.50;3.10;;;24.70;99.90;;;;;;5039672;28;20073;-46
2021/07/18 05:31:07;;;;;;;5.68;2.47;;;24.80;99.90;;;;;;5039697;28;20073;-46
2021/07/18 05:33:34;;;;;;;8.23;3.22;;;24.80;99.90;;;;;;5038331;28;20048;-46
2021/07/18 05:36:02;;;;;;;12.10;3.30;;;24.80;99.90;;;;;;5038849;28;20053;-46
2021/07/18 05:38:30;;;;;;;9.85;6.72;;;24.80;99.90;;;;;;5039304;28;20056;-48
2021/07/18 05:40:59;;;;;;;14.88;9.68;;;24.80;99.90;;;;;;5039540;28;20491;-45
2021/07/18 05:43:27;;;;;;;13.77;7.82;;;24.80;99.90;;;;;;5038559;28;20033;-46
2021/07/18 05:45:54;;;;;;;7.15;4.53;;;24.90;99.90;;;;;;5039406;28;20049;-46
2021/07/18 05:48:25;;;;;;;8.23;3.42;;;24.80;99.90;;;;;;5039373;28;20412;-46
2021/07/18 05:50:52;;;;;;;5.05;2.63;;;24.90;99.90;;;;;;5039587;28;20041;-46
2021/07/18 05:53:20;;;;;;;3.95;2.08;;;24.90;99.90;;;;;;5039280;28;20045;-46
2021/07/18 05:55:48;;;;;;;8.60;3.05;;;24.90;99.90;;;;;;5039337;28;20045;-45
2021/07/18 05:58:15;;;;;;;6.20;2.80;;;25.00;99.90;;;;;;5039205;28;20045;-46
2021/07/18 06:00:43;;;;;;;5.72;2.67;;;25.00;99.90;;;;;;5039475;28;20129;-46
2021/07/18 06:03:11;;;;;;;3.53;2.45;;;25.10;99.90;;;;;;5038680;28;20124;-46
2021/07/18 06:05:39;;;;;;;6.85;2.40;;;25.20;99.90;;;;;;5036009;28;20037;-46
2021/07/18 06:08:07;;;;;;;5.03;2.40;;;25.50;99.90;;;;;;5034346;28;20084;-48
2021/07/18 06:10:35;;;;;;;11.85;2.72;;;25.60;99.90;;;;;;5035960;28;20139;-46
2021/07/18 06:13:03;;;;;;;3.70;2.35;;;25.70;99.90;;;;;;5035907;28;20044;-49
2021/07/18 06:15:30;;;;;;;7.53;2.97;;;25.80;99.90;;;;;;5035940;28;20101;-50
2021/07/18 06:17:58;;;;;;;4.68;2.45;;;26.10;99.90;;;;;;5035864;28;20046;-47
2021/07/18 06:20:27;;;;;;;3.80;2.15;;;26.40;99.90;;;;;;5035982;28;20048;-46
2021/07/18 06:22:55;;;;;;;6.57;1.98;;;26.80;99.90;;;;;;5035570;28;20052;-47
2021/07/18 06:25:23;;;;;;;4.68;2.40;;;27.20;99.90;;;;;;5035413;28;20076;-46
2021/07/18 06:27:50;;;;;;;11.25;2.65;;;27.50;99.70;;;;;;5034448;28;20045;-46
2021/07/18 06:30:18;;;;;;;6.65;2.53;;;27.80;98.80;;;;;;5034253;28;20042;-47
2021/07/18 06:32:45;;;;;;;5.38;2.30;;;27.90;98.20;;;;;;5035893;28;20045;-46
2021/07/18 06:35:13;;;;;;;4.55;1.98;;;27.80;97.90;;;;;;5034665;28;20052;-46
2021/07/18 06:37:41;;;;;;;4.80;2.58;;;27.70;98.10;;;;;;5035576;28;20053;-46
2021/07/18 06:40:09;;;;;;;4.43;2.30;;;27.50;98.10;;;;;;5033930;28;20492;-46
2021/07/18 06:42:37;;;;;;;4.28;2.35;;;27.30;97.90;;;;;;5035274;28;20056;-48
2021/07/18 06:45:07;;;;;;;5.88;2.45;;;27.20;97.90;;;;;;5035047;28;20053;-46
2021/07/18 06:47:35;;;;;;;2.75;1.80;;;27.00;97.40;;;;;;5035551;28;20049;-46
2021/07/18 06:50:03;;;;;;;5.75;2.28;;;26.90;97.10;;;;;;5035477;28;20083;-47
2021/07/18 06:52:30;;;;;;;5.35;2.20;;;26.70;97.10;;;;;;5034247;28;20047;-48
2021/07/18 06:54:58;;;;;;;3.28;2.00;;;26.60;96.80;;;;;;5033762;28;20115;-47
2021/07/18 06:57:26;;;;;;;4.65;1.60;;;26.60;96.70;;;;;;5035049;28;20052;-46
2021/07/18 06:59:53;;;;;;;3.25;1.85;;;26.50;96.80;;;;;;5035073;28;20037;-48
2021/07/18 07:02:21;;;;;;;7.78;3.03;;;26.40;96.50;;;;;;5035291;28;20268;-46
2021/07/18 07:04:49;;;;;;;5.05;2.15;;;26.40;96.50;;;;;;5035204;28;20515;-49
2021/07/18 07:07:16;;;;;;;3.35;1.58;;;26.40;96.60;;;;;;5035101;28;20046;-46
2021/07/18 07:09:45;;;;;;;5.00;2.08;;;26.40;96.50;;;;;;5034658;28;20055;-47
2021/07/18 07:12:13;;;;;;;3.05;1.77;;;26.40;96.50;;;;;;5034495;28;20413;-45
2021/07/18 07:14:40;;;;;;;5.95;1.92;;;26.70;96.10;;;;;;5034559;28;20045;-46
2021/07/18 07:17:08;;;;;;;4.60;1.95;;;26.90;96.00;;;;;;5034069;28;20042;-47
2021/07/18 07:19:36;;;;;;;4.70;2.08;;;27.30;95.60;;;;;;5034883;28;20045;-45
2021/07/18 07:22:04;;;;;;;3.58;2.60;;;27.60;94.80;;;;;;5034802;28;20557;-45
2021/07/18 07:24:32;;;;;;;3.03;1.55;;;28.00;94.70;;;;;;5034602;28;20510;-47
2021/07/18 07:26:59;;;;;;;2.55;1.60;;;28.20;94.10;;;;;;5032857;28;20046;-45
2021/07/18 07:29:27;;;;;;;4.25;2.13;;;28.10;93.60;;;;;;5034604;28;20507;-45
2021/07/18 07:31:54;;;;;;;5.25;2.25;;;28.00;93.80;;;;;;5034554;28;20511;-46
2021/07/18 07:34:22;;;;;;;2.85;1.63;;;27.90;93.90;;;;;;5034506;28;20444;-47
2021/07/18 07:36:50;;;;;;;4.40;1.70;;;27.80;93.60;;;;;;5034603;28;20045;-46
2021/07/18 07:39:17;;;;;;;2.60;1.42;;;27.70;93.40;;;;;;5034445;28;20073;-46
2021/07/18 07:41:45;;;;;;;2.20;1.50;;;27.70;93.10;;;;;;5033967;28;20041;-46
2021/07/18 07:44:12;;;;;;;2.90;1.65;;;27.60;93.20;;;;;;5034187;28;20068;-47
2021/07/18 07:46:40;;;;;;;2.88;1.75;;;27.50;93.30;;;;;;5034480;28;20053;-46
2021/07/18 07:49:08;;;;;;;2.65;1.70;;;27.50;93.20;;;;;;5034320;28;20395;-46
2021/07/18 07:51:36;;;;;;;2.75;1.90;;;27.50;93.10;;;;;;5034649;28;20042;-46
2021/07/18 07:54:04;;;;;;;3.25;1.48;;;27.70;93.00;;;;;;5034418;28;20044;-46
2021/07/18 07:56:32;;;;;;;4.13;1.70;;;27.70;92.60;;;;;;5033821;28;20049;-46
2021/07/18 07:59:00;;;;;;;4.35;1.50;;;27.50;92.00;;;;;;5032653;28;20115;-45
2021/07/18 08:01:28;;;;;;;4.53;1.55;;;27.70;92.20;;;;;;5033935;28;20056;-48
2021/07/18 08:03:55;;;;;;;2.70;1.52;;;27.80;92.30;;;;;;5033992;28;20041;-46
2021/07/18 08:06:23;;;;;;;4.60;1.98;;;28.00;92.40;;;;;;5032569;28;20049;-45
2021/07/18 08:08:51;;;;;;;4.53;1.45;;;28.10;92.60;;;;;;5033668;28;20045;-46
2021/07/18 08:11:19;;;;;;;4.07;1.70;;;28.20;92.50;;;;;;5032797;28;20049;-47
2021/07/18 08:13:46;;;;;;;3.70;2.40;;;28.00;92.80;;;;;;5032592;28;20053;-46
2021/07/18 08:16:14;;;;;;;4.97;1.52;;;27.90;93.10;;;;;;5032699;28;20045;-47
2021/07/18 08:18:42;;;;;;;3.35;1.85;;;27.80;93.40;;;;;;5032837;28;20088;-46
2021/07/18 08:21:09;;;;;;;5.75;2.30;;;27.60;93.30;;;;;;5032872;28;20065;-47
2021/07/18 08:23:37;;;;;;;2.20;1.50;;;27.60;93.30;;;;;;5032813;28;20526;-45
2021/07/18 08:26:07;;;;;;;5.72;2.00;;;27.70;93.30;;;;;;5032740;28;20094;-46
2021/07/18 08:28:38;;;;;;;4.90;2.42;;;27.90;93.50;;;;;;5031953;28;20037;-46
2021/07/18 08:31:05;;;;;;;4.85;2.35;;;27.90;93.90;;;;;;5032365;28;20041;-46
2021/07/18 08:33:33;;;;;;;4.05;2.00;;;27.80;94.10;;;;;;5032405;28;20057;-47
2021/07/18 08:36:01;;;;;;;3.67;1.90;;;28.00;93.70;;;;;;5032597;28;20049;-46
2021/07/18 08:38:29;;;;;;;6.15;1.85;;;28.20;92.00;;;;;;5032482;28;20053;-46
2021/07/18 08:40:57;;;;;;;2.53;1.63;;;28.50;90.90;;;;;;5015474;28;20123;-46
2021/07/18 08:43:46;;;;;;;3.60;1.58;;;28.80;88.40;;;;;;5032390;28;20049;-46
2021/07/18 08:46:18;;;;;;;4.10;1.15;;;29.20;87.10;;;;;;5031794;28;20041;-46
2021/07/18 08:48:47;;;;;;;2.00;1.20;;;29.40;85.00;;;;;;5032176;28;20080;-47
2021/07/18 08:51:17;;;;;;;2.50;1.20;;;29.70;84.30;;;;;;5031993;28;20233;-46
2021/07/18 08:53:44;;;;;;;3.67;1.63;;;29.80;82.20;;;;;;5032180;28;20059;-46
2021/07/18 08:56:12;;;;;;;2.28;1.30;;;29.90;81.60;;;;;;5032333;28;20132;-46
2021/07/18 08:58:41;;;;;;;2.08;1.38;;;29.70;82.50;;;;;;5032111;28;20045;-48
2021/07/18 09:01:12;;;;;;;3.25;1.38;;;29.60;83.40;;;;;;5031381;28;20091;-46
2021/07/18 09:03:41;;;;;;;3.97;1.58;;;29.40;84.70;;;;;;5031810;28;20454;-45
2021/07/18 09:06:10;;;;;;;4.10;1.65;;;29.00;86.90;;;;;;5032173;28;20041;-49
2021/07/18 09:08:47;;;;;;;2.60;1.63;;;28.80;88.70;;;;;;5032030;28;20050;-46
2021/07/18 09:11:22;;;;;;;4.82;1.98;;;28.60;90.20;;;;;;5032010;28;20069;-52
2021/07/18 09:13:59;;;;;;;4.18;1.70;;;28.40;90.30;;;;;;5032418;28;20124;-47
2021/07/18 09:16:32;;;;;;;2.58;1.60;;;28.20;90.20;;;;;;5029960;28;20038;-46
2021/07/18 09:19:29;;;;;;;2.53;1.25;;;28.00;90.10;;;;;;5014003;28;20045;-47
2021/07/18 09:21:57;;;;;;;2.08;1.40;;;27.90;90.10;;;;;;5031801;28;20128;-46
2021/07/18 09:24:34;;;;;;;5.15;1.95;;;27.80;90.10;;;;;;5030478;28;20396;-46
2021/07/18 09:27:12;;;;;;;4.15;1.75;;;27.80;90.30;;;;;;5031735;28;20045;-48
2021/07/18 09:29:44;;;;;;;6.40;2.20;;;27.70;90.40;;;;;;5031215;28;20079;-46
2021/07/18 09:32:20;;;;;;;6.75;1.80;;;27.60;91.20;;;;;;5031406;28;20073;-47
2021/07/18 09:34:56;;;;;;;4.03;1.88;;;27.60;92.30;;;;;;5030538;28;20049;-48
2021/07/18 09:37:33;;;;;;;7.53;2.75;;;27.50;93.00;;;;;;5031934;28;20506;-46
2021/07/18 09:40:06;;;;;;;4.03;1.75;;;27.40;93.30;;;;;;5033044;28;20056;-46
2021/07/18 09:42:44;;;;;;;5.32;2.05;;;27.40;93.50;;;;;;5035803;28;20064;-47
2021/07/18 09:45:12;;;;;;;6.35;2.70;;;27.40;93.90;;;;;;5035579;28;20056;-46
2021/07/18 09:48:02;;;;;;;3.28;2.03;;;27.40;94.10;;;;;;5034903;28;20061;-45
2021/07/18 09:50:40;;;;;;;5.85;2.13;;;27.50;94.30;;;;;;5035758;28;20511;-48
2021/07/18 09:53:10;;;;;;;5.78;2.10;;;27.50;94.10;;;;;;5036325;28;20152;-46
2021/07/18 09:55:53;;;;;;;5.70;2.60;;;27.60;94.10;;;;;;5036192;28;20050;-46
2021/07/18 09:58:22;;;;;;;3.53;1.70;;;27.60;93.90;;;;;;5036441;28;20411;-46
2021/07/18 10:00:50;;;;;;;3.88;2.45;;;27.70;93.70;;;;;;5036303;28;20529;-47
2021/07/18 10:03:22;;;;;;;4.82;2.15;;;27.80;93.60;;;;;;5035392;28;20120;-46
2021/07/18 10:06:12;;;;;;;6.15;2.28;;;27.80;93.30;;;;;;5035050;28;20049;-48
2021/07/18 10:08:45;;;;;;;5.00;1.95;;;27.80;93.10;;;;;;5035087;28;20092;-46
2021/07/18 10:11:16;;;;;;;5.65;2.30;;;27.80;92.90;;;;;;5034052;28;20045;-47
2021/07/18 10:13:46;;;;;;;10.50;2.50;;;28.00;93.10;;;;;;5035750;28;20495;-47
2021/07/18 10:16:16;;;;;;;3.25;1.98;;;28.00;92.90;;;;;;5035266;28;20100;-49
2021/07/18 10:18:46;;;;;;;4.00;2.45;;;28.20;92.60;;;;;;5034398;28;20372;-46
2021/07/18 10:21:18;;;;;;;5.57;1.90;;;28.40;92.40;;;;;;5034503;28;20045;-48
2021/07/18 10:23:48;;;;;;;7.18;1.80;;;28.50;92.00;;;;;;5034622;28;20045;-47
2021/07/18 10:26:22;;;;;;;5.78;2.38;;;28.80;91.70;;;;;;5033441;28;20075;-48
2021/07/18 10:28:51;;;;;;;4.63;1.73;;;28.90;91.50;;;;;;5033538;28;20076;-48
2021/07/18 10:31:30;;;;;;;3.55;1.92;;;29.00;91.00;;;;;;5034598;28;20114;-47
2021/07/18 10:34:00;;;;;;;3.72;1.70;;;29.10;91.00;;;;;;5033682;28;20399;-47
2021/07/18 10:36:30;;;;;;;3.63;2.40;;;29.10;90.70;;;;;;5034574;28;20634;-48
2021/07/18 10:38:59;;;;;;;3.17;1.52;;;29.20;90.80;;;;;;5034372;28;20041;-46
2021/07/18 10:41:46;;;;;;;2.65;1.63;;;29.20;90.50;;;;;;5034450;28;20183;-47
2021/07/18 10:44:18;;;;;;;6.15;1.80;;;29.30;90.10;;;;;;5034228;28;20135;-46
2021/07/18 10:46:54;;;;;;;3.83;1.77;;;29.40;89.50;;;;;;5034481;28;20526;-47
2021/07/18 10:50:00;;;;;;;3.67;2.38;;;29.40;89.50;;;;;;5033426;28;20045;-46
2021/07/18 10:52:35;;;;;;;3.40;1.80;;;29.40;89.30;;;;;;5033833;28;20124;-46
2021/07/18 10:55:23;;;;;;;3.50;2.10;;;29.30;90.00;;;;;;5034005;28;20325;-46
2021/07/18 10:57:54;;;;;;;4.72;2.42;;;29.30;90.00;;;;;;5034216;28;20063;-46
2021/07/18 11:00:24;;;;;;;3.22;2.17;;;29.40;90.10;;;;;;5033961;28;20053;-45
2021/07/18 11:03:09;;;;;;;3.38;1.80;;;29.40;89.60;;;;;;5034340;28;20648;-45
2021/07/18 11:05:54;;;;;;;2.72;1.40;;;29.50;89.00;;;;;;5032982;28;20048;-49
2021/07/18 11:08:22;;;;;;;5.50;2.10;;;29.70;88.80;;;;;;5033535;28;20384;-46
2021/07/18 11:10:53;;;;;;;2.42;1.50;;;29.90;88.50;;;;;;5033954;28;20095;-46
2021/07/18 11:13:22;;;;;;;3.45;1.67;;;29.80;87.50;;;;;;5033536;28;20048;-47
2021/07/18 11:15:50;;;;;;;2.95;1.70;;;29.60;86.90;;;;;;5032378;28;20104;-46
2021/07/18 11:18:35;;;;;;;3.05;2.03;;;29.50;87.10;;;;;;5033628;28;20526;-48
2021/07/18 11:21:29;;;;;;;5.63;2.90;;;29.40;87.60;;;;;;5033030;28;20372;-47
2021/07/18 11:23:58;;;;;;;6.78;2.22;;;29.30;89.10;;;;;;5033175;28;20049;-46
2021/07/18 11:26:43;;;;;;;5.82;2.15;;;29.30;89.30;;;;;;5034406;28;20049;-46
2021/07/18 11:29:12;;;;;;;2.08;1.60;;;29.20;90.10;;;;;;5034427;28;20099;-46
2021/07/18 11:31:42;;;;;;;2.60;1.60;;;29.30;91.30;;;;;;5034267;28;20037;-46
2021/07/18 11:34:12;;;;;;;3.17;1.50;;;29.60;90.50;;;;;;5034152;28;20042;-46
2021/07/18 11:36:39;;;;;;;4.30;1.63;;;29.80;90.10;;;;;;5033573;28;20396;-48
2021/07/18 11:39:19;;;;;;;4.95;2.22;;;30.00;89.40;;;;;;5032837;28;20056;-46
2021/07/18 11:41:48;;;;;;;3.92;1.70;;;30.00;89.30;;;;;;5034006;28;20046;-46
2021/07/18 11:44:17;;;;;;;6.53;2.10;;;29.90;88.00;;;;;;5033772;28;20392;-45
2021/07/18 11:46:47;;;;;;;3.60;1.75;;;29.80;88.00;;;;;;5033030;28;20403;-46
2021/07/18 11:49:17;;;;;;;7.13;2.08;;;29.70;88.20;;;;;;5034183;28;20045;-46
2021/07/18 11:51:46;;;;;;;2.70;2.03;;;29.60;88.70;;;;;;5033375;28;20041;-47
2021/07/18 11:54:15;;;;;;;6.18;1.70;;;29.60;88.80;;;;;;5033547;28;20450;-46
2021/07/18 11:56:45;;;;;;;4.63;2.03;;;29.50;88.70;;;;;;5033872;28;20147;-46
2021/07/18 11:59:15;;;;;;;3.83;1.75;;;29.50;88.80;;;;;;5033801;28;20080;-46
2021/07/18 12:01:44;;;;;;;3.92;2.17;;;29.50;89.00;;;;;;5032878;28;20480;-48
2021/07/18 12:04:22;;;;;;;4.30;2.22;;;29.50;88.20;;;;;;5033390;28;20073;-47
2021/07/18 12:06:52;;;;;;;4.00;2.20;;;29.60;87.90;;;;;;5033746;28;20049;-46
2021/07/18 12:09:23;;;;;;;3.47;1.73;;;29.60;87.60;;;;;;5032187;28;20046;-46
2021/07/18 12:11:57;;;;;;;3.35;1.85;;;29.50;88.20;;;;;;5033294;28;20099;-46
2021/07/18 12:14:33;;;;;;;4.07;2.05;;;29.50;88.40;;;;;;5033734;28;20037;-46
2021/07/18 12:17:11;;;;;;;3.17;1.88;;;29.30;88.50;;;;;;5033983;28;20565;-46
2021/07/18 12:19:42;;;;;;;4.03;1.90;;;29.10;88.30;;;;;;5033624;28;20099;-46
2021/07/18 12:22:12;;;;;;;3.10;1.80;;;28.90;89.10;;;;;;5033362;28;20037;-47
2021/07/18 12:24:47;;;;;;;6.03;3.83;;;28.70;90.00;;;;;;5032558;28;20042;-47
2021/07/18 12:27:23;;;;;;;3.75;2.03;;;28.60;90.20;;;;;;5033312;28;20042;-47
2021/07/18 12:29:54;;;;;;;3.42;2.13;;;28.60;90.40;;;;;;5033302;28;20053;-48
2021/07/18 12:32:30;;;;;;;2.72;2.00;;;28.50;90.60;;;;;;5033489;28;20522;-46
2021/07/18 12:35:02;;;;;;;2.80;1.88;;;28.40;90.70;;;;;;5033434;28;20064;-46
2021/07/18 12:37:36;;;;;;;4.40;1.95;;;28.30;90.90;;;;;;5033536;28;20096;-47
2021/07/18 12:40:07;;;;;;;3.50;2.35;;;28.30;91.10;;;;;;5032800;28;20076;-45
2021/07/18 12:42:43;;;;;;;3.00;2.00;;;28.20;91.40;;;;;;5033369;28;20051;-43
2021/07/18 12:45:21;;;;;;;4.47;2.10;;;28.10;91.80;;;;;;5033316;28;20127;-47
2021/07/18 12:48:03;;;;;;;3.00;1.90;;;28.00;92.00;;;;;;5033187;28;20149;-47
2021/07/18 12:50:38;;;;;;;3.60;2.05;;;27.90;92.00;;;;;;5033784;28;20045;-47
2021/07/18 12:53:15;;;;;;;3.85;2.08;;;27.90;92.00;;;;;;5033719;28;20041;-50
2021/07/18 12:55:50;;;;;;;;;;;27.90;92.20;;;;;;5032925;28;20053;-48
2021/07/18 12:58:33;;;;;;;4.55;2.65;;;27.80;92.80;;;;;;5033048;28;19972;-48
2021/07/18 13:01:11;;;;;;;5.60;3.20;;;27.70;93.40;;;;;;5033134;28;20041;-48
2021/07/18 13:03:46;;;;;;;3.85;2.65;;;27.60;93.50;;;;;;5033305;28;20124;-47